Time;durP1;ratioP1;P1;durP2;ratioP2;P2;SDS_P1;SDS_P2;PMS_P1;PMS_P2;Temp;Humidity;BMP_temperature;BMP_pressure;BME280_temperature;BME280_humidity;BME280_pressure;Samples;Min_cycle;Max_cycle;Signal;HPM_P1;HPM_P2
2022/08/07 00:01:32;;;;;;;1.42;1.00;;;13.70;99.90;;;;;;5012221;28;20658;-89
2022/08/07 00:03:58;;;;;;;2.15;0.90;;;13.70;99.90;;;;;;5010542;28;20202;-87
2022/08/07 00:06:25;;;;;;;1.00;0.90;;;13.60;99.90;;;;;;5015070;28;20246;-88
2022/08/07 00:08:50;;;;;;;2.40;1.00;;;13.60;99.90;;;;;;5021151;28;20191;-88
2022/08/07 00:11:17;;;;;;;1.50;0.82;;;13.50;99.90;;;;;;5011266;28;20245;-86
2022/08/07 00:13:44;;;;;;;1.02;0.88;;;13.50;99.90;;;;;;5011333;28;20186;-86
2022/08/07 00:16:11;;;;;;;2.95;1.10;;;13.50;99.90;;;;;;5011370;28;20195;-90
2022/08/07 00:18:38;;;;;;;1.80;0.90;;;13.50;99.90;;;;;;5027426;28;20190;-86
2022/08/07 00:21:07;;;;;;;1.38;1.00;;;13.40;99.90;;;;;;5028922;28;20201;-86
2022/08/07 00:23:36;;;;;;;2.75;1.40;;;13.40;99.90;;;;;;5011091;28;20203;-87
2022/08/07 00:26:04;;;;;;;1.95;1.20;;;13.40;99.90;;;;;;5015401;28;20689;-87
2022/08/07 00:28:31;;;;;;;6.07;1.02;;;13.40;99.90;;;;;;5022983;28;20274;-86
2022/08/07 00:30:57;;;;;;;1.20;1.00;;;13.40;99.90;;;;;;5012801;28;20170;-87
2022/08/07 00:33:27;;;;;;;2.60;1.00;;;13.30;99.90;;;;;;5015182;28;20186;-86
2022/08/07 00:35:56;;;;;;;1.98;1.00;;;13.30;99.90;;;;;;5015786;28;20198;-87
2022/08/07 00:38:22;;;;;;;1.50;1.23;;;13.30;99.90;;;;;;5019057;28;20238;-86
2022/08/07 00:40:48;;;;;;;1.50;1.13;;;13.20;99.90;;;;;;5010929;28;20210;-86
2022/08/07 00:43:15;;;;;;;2.15;1.13;;;13.30;99.90;;;;;;5014831;28;20761;-88
2022/08/07 00:45:41;;;;;;;1.45;1.20;;;13.30;99.90;;;;;;5010692;28;20211;-85
2022/08/07 00:48:09;;;;;;;1.15;1.00;;;13.30;99.90;;;;;;5020179;28;20328;-86
2022/08/07 00:50:35;;;;;;;1.63;1.20;;;13.20;99.90;;;;;;5013354;28;20274;-87
2022/08/07 00:53:01;;;;;;;2.95;1.08;;;13.20;99.90;;;;;;5017390;28;20670;-86
2022/08/07 00:55:28;;;;;;;2.95;0.93;;;13.10;99.90;;;;;;5013719;28;20187;-88
2022/08/07 00:57:54;;;;;;;1.33;1.00;;;13.20;99.90;;;;;;5017470;28;20294;-85
2022/08/07 01:00:20;;;;;;;1.35;1.08;;;13.10;99.90;;;;;;5011956;28;20262;-91
2022/08/07 01:02:46;;;;;;;1.77;1.10;;;13.00;99.90;;;;;;5019931;28;20186;-89
2022/08/07 01:05:12;;;;;;;1.00;0.82;;;13.00;99.90;;;;;;5010467;28;20183;-88
2022/08/07 01:07:39;;;;;;;0.80;0.80;;;13.00;99.90;;;;;;5012794;28;20241;-89
2022/08/07 01:10:06;;;;;;;1.17;1.08;;;12.90;99.90;;;;;;5030225;28;20242;-88
2022/08/07 01:12:33;;;;;;;3.78;1.55;;;13.00;99.90;;;;;;5013894;28;20187;-87
2022/08/07 01:15:00;;;;;;;1.65;1.25;;;12.90;99.90;;;;;;5010486;28;20187;-88
2022/08/07 01:17:27;;;;;;;1.63;1.30;;;12.90;99.90;;;;;;5016752;28;20702;-89
2022/08/07 01:19:56;;;;;;;2.22;1.48;;;12.90;99.90;;;;;;5011618;28;20238;-88
2022/08/07 01:22:22;;;;;;;2.92;1.23;;;12.90;99.90;;;;;;5019852;28;20190;-86
2022/08/07 01:24:48;;;;;;;1.10;1.00;;;12.90;99.90;;;;;;5016592;28;20187;-86
2022/08/07 01:27:14;;;;;;;1.20;1.10;;;12.90;99.90;;;;;;5014330;28;20219;-88
2022/08/07 01:29:42;;;;;;;2.55;1.25;;;12.80;99.90;;;;;;5018922;28;20266;-85
2022/08/07 01:32:08;;;;;;;1.90;1.35;;;12.80;99.90;;;;;;5019153;28;20186;-88
2022/08/07 01:34:34;;;;;;;1.27;1.17;;;12.80;99.90;;;;;;5028464;28;20532;-88
2022/08/07 01:37:01;;;;;;;1.98;1.05;;;12.80;99.90;;;;;;5011863;28;20241;-89
2022/08/07 01:39:27;;;;;;;1.58;1.20;;;12.80;99.90;;;;;;5027281;28;20213;-86
2022/08/07 01:41:55;;;;;;;1.35;1.00;;;12.70;99.90;;;;;;5013785;28;20186;-88
2022/08/07 01:44:21;;;;;;;2.40;1.23;;;12.70;99.90;;;;;;5022116;28;20244;-85
2022/08/07 01:46:48;;;;;;;3.20;1.27;;;12.70;99.90;;;;;;5011111;28;20214;-88
2022/08/07 01:49:15;;;;;;;2.10;1.25;;;12.70;99.90;;;;;;5009776;28;20218;-87
2022/08/07 01:51:45;;;;;;;1.55;1.13;;;12.70;99.90;;;;;;5011113;28;20535;-86
2022/08/07 01:54:13;;;;;;;1.63;1.33;;;12.70;99.90;;;;;;5020186;28;20258;-87
2022/08/07 01:56:52;;;;;;;1.50;1.30;;;12.70;99.90;;;;;;5010042;28;20585;-88
2022/08/07 01:59:35;;;;;;;1.48;1.30;;;12.70;99.90;;;;;;5009561;28;20671;-86
2022/08/07 02:02:21;;;;;;;1.85;1.20;;;12.60;99.90;;;;;;5024998;28;20655;-85
2022/08/07 02:04:50;;;;;;;1.88;1.10;;;12.50;99.90;;;;;;5002139;28;20195;-85
2022/08/07 02:07:19;;;;;;;3.65;1.27;;;12.50;99.90;;;;;;5028584;28;20217;-87
2022/08/07 02:09:46;;;;;;;2.10;1.10;;;12.50;99.90;;;;;;5018191;28;20182;-87
2022/08/07 02:12:16;;;;;;;2.83;1.25;;;12.50;99.90;;;;;;5009659;28;20198;-88
2022/08/07 02:14:50;;;;;;;1.58;1.10;;;12.40;99.90;;;;;;5009718;28;20206;-87
2022/08/07 02:17:17;;;;;;;1.88;1.30;;;12.50;99.90;;;;;;5000768;28;20653;-86
2022/08/07 02:19:47;;;;;;;2.15;1.23;;;12.50;99.90;;;;;;5025573;28;20246;-86
2022/08/07 02:22:15;;;;;;;1.73;1.08;;;12.40;99.90;;;;;;5024546;28;20217;-87
2022/08/07 02:24:43;;;;;;;3.33;1.15;;;12.40;99.90;;;;;;5013087;28;20282;-90
2022/08/07 02:27:11;;;;;;;2.33;1.40;;;12.40;99.90;;;;;;5013436;28;20219;-86
2022/08/07 02:29:39;;;;;;;1.50;1.33;;;12.30;99.90;;;;;;5003474;28;20197;-88
2022/08/07 02:32:07;;;;;;;1.30;1.20;;;12.40;99.90;;;;;;5034093;28;20182;-87
2022/08/07 02:34:33;;;;;;;1.73;1.20;;;12.40;99.90;;;;;;5020752;28;20183;-89
2022/08/07 02:37:02;;;;;;;1.13;1.00;;;12.40;99.90;;;;;;5013157;28;20314;-87
2022/08/07 02:39:30;;;;;;;2.58;1.67;;;12.40;99.90;;;;;;5013696;28;20190;-87
2022/08/07 02:41:56;;;;;;;1.45;1.08;;;12.40;99.90;;;;;;5018612;28;20648;-88
2022/08/07 02:49:28;;;;;;;1.15;1.05;;;12.40;99.90;;;;;;5052241;28;20568;-87
2022/08/07 02:51:57;;;;;;;2.28;1.20;;;12.30;99.90;;;;;;5056733;28;20174;-92
2022/08/07 02:54:27;;;;;;;1.77;1.00;;;12.30;99.90;;;;;;5047523;28;20178;-94
2022/08/07 02:56:59;;;;;;;1.40;1.02;;;12.30;99.90;;;;;;5050395;28;20197;-91
2022/08/07 02:59:26;;;;;;;1.38;1.17;;;12.30;99.90;;;;;;5041088;28;20320;-93
2022/08/07 03:01:53;;;;;;;1.23;1.13;;;12.20;99.90;;;;;;5045656;28;20186;-94
2022/08/07 03:04:21;;;;;;;1.85;1.15;;;12.20;99.90;;;;;;5040106;28;20511;-96
2022/08/07 03:06:50;;;;;;;1.98;1.10;;;12.10;99.90;;;;;;5043832;28;20555;-95
2022/08/07 03:09:18;;;;;;;2.58;1.10;;;12.10;99.90;;;;;;5048840;28;20189;-86
2022/08/07 03:11:44;;;;;;;3.05;1.25;;;12.10;99.90;;;;;;5047722;28;20185;-94
2022/08/07 03:14:11;;;;;;;1.58;1.15;;;12.10;99.90;;;;;;5045273;28;20686;-92
2022/08/07 03:16:37;;;;;;;1.45;1.20;;;12.10;99.90;;;;;;5050259;28;20190;-93
2022/08/07 03:19:03;;;;;;;1.65;1.33;;;12.10;99.90;;;;;;5050671;28;20186;-96
2022/08/07 03:21:29;;;;;;;2.92;1.67;;;12.00;99.90;;;;;;5057227;28;20185;-95
2022/08/07 03:23:58;;;;;;;1.80;1.48;;;11.90;99.90;;;;;;5039057;28;20189;-86
2022/08/07 03:26:27;;;;;;;1.83;1.52;;;12.00;99.90;;;;;;5028269;28;20206;-85
2022/08/07 03:28:59;;;;;;;2.08;1.63;;;12.00;99.90;;;;;;5049109;28;20178;-85
2022/08/07 03:31:26;;;;;;;3.03;1.80;;;11.90;99.90;;;;;;5038369;28;20627;-85
2022/08/07 03:34:02;;;;;;;2.15;1.95;;;11.80;99.90;;;;;;5045297;28;20190;-93
2022/08/07 03:36:29;;;;;;;2.70;2.00;;;11.70;99.90;;;;;;5041386;28;20209;-93
2022/08/07 03:39:07;;;;;;;3.60;2.30;;;11.70;99.90;;;;;;5041198;28;20235;-89
2022/08/07 03:41:34;;;;;;;3.40;1.85;;;11.70;99.90;;;;;;5032589;28;20565;-95
2022/08/07 03:44:00;;;;;;;2.75;1.95;;;11.70;99.90;;;;;;5039066;28;20193;-96
2022/08/07 03:46:29;;;;;;;1.92;1.67;;;11.70;99.90;;;;;;5038880;28;20667;-96
2022/08/07 03:48:55;;;;;;;3.08;1.90;;;11.70;99.90;;;;;;5043371;28;20279;-93
2022/08/07 03:51:21;;;;;;;2.38;1.52;;;11.70;99.90;;;;;;5038865;28;20197;-94
2022/08/07 03:53:48;;;;;;;2.50;1.75;;;11.70;99.90;;;;;;5038395;28;20186;-92
2022/08/07 03:56:19;;;;;;;4.15;1.70;;;11.70;99.90;;;;;;5022628;28;20190;-92
2022/08/07 03:58:48;;;;;;;2.35;2.00;;;11.70;99.90;;;;;;5038752;28;20220;-95
2022/08/07 04:01:16;;;;;;;2.30;1.80;;;11.70;99.90;;;;;;5038928;28;20188;-96
2022/08/07 04:03:42;;;;;;;2.63;1.58;;;11.60;99.90;;;;;;5038288;28;20639;-94
2022/08/07 04:06:11;;;;;;;2.03;1.58;;;11.60;99.90;;;;;;5038773;28;20217;-96
2022/08/07 04:08:40;;;;;;;2.35;1.90;;;11.60;99.90;;;;;;5044164;28;20209;-96
2022/08/07 04:11:07;;;;;;;2.00;1.55;;;11.50;99.90;;;;;;5056632;28;20209;-95
2022/08/07 04:13:34;;;;;;;3.15;1.67;;;11.50;99.90;;;;;;5056511;28;20182;-96
2022/08/07 04:16:01;;;;;;;3.00;1.88;;;11.50;99.90;;;;;;5038643;28;20229;-95
2022/08/07 04:18:32;;;;;;;5.80;1.52;;;11.50;99.90;;;;;;5037974;28;20651;-96
2022/08/07 04:20:57;;;;;;;2.00;1.73;;;11.50;99.90;;;;;;5038256;28;20186;-96
2022/08/07 04:23:24;;;;;;;3.25;1.95;;;11.40;99.90;;;;;;5038327;28;20197;-90
2022/08/07 04:25:52;;;;;;;2.17;1.90;;;11.40;99.90;;;;;;5038036;28;20553;-85
2022/08/07 04:28:19;;;;;;;2.42;1.70;;;11.40;99.90;;;;;;5037158;28;20182;-89
2022/08/07 04:30:49;;;;;;;2.95;1.73;;;11.40;99.90;;;;;;5037596;28;20205;-85
2022/08/07 04:33:16;;;;;;;2.22;2.00;;;11.50;99.90;;;;;;5037374;28;20185;-86
2022/08/07 04:35:45;;;;;;;6.65;2.05;;;11.50;99.90;;;;;;5036904;28;20181;-86
2022/08/07 04:38:11;;;;;;;1.92;1.67;;;11.50;99.90;;;;;;5037458;28;20243;-88
2022/08/07 04:40:41;;;;;;;3.53;2.05;;;11.60;99.90;;;;;;5054569;28;20209;-85
2022/08/07 04:43:07;;;;;;;3.05;2.20;;;11.60;99.90;;;;;;5036975;28;20575;-87
2022/08/07 04:45:54;;;;;;;3.20;1.95;;;11.70;99.90;;;;;;5037467;28;20221;-92
2022/08/07 04:48:37;;;;;;;2.00;1.60;;;11.80;99.90;;;;;;5046667;28;20237;-85
2022/08/07 04:51:20;;;;;;;2.00;1.30;;;11.70;99.90;;;;;;5036196;28;20205;-92
2022/08/07 04:53:55;;;;;;;2.35;1.85;;;11.70;99.90;;;;;;5035675;28;20527;-85
2022/08/07 04:56:39;;;;;;;1.85;1.42;;;11.70;99.90;;;;;;5054773;28;20178;-85
2022/08/07 04:59:15;;;;;;;2.38;1.70;;;11.70;99.90;;;;;;5036819;28;20186;-85
2022/08/07 05:02:09;;;;;;;1.98;1.50;;;11.80;99.90;;;;;;5037103;28;20383;-86
2022/08/07 05:04:52;;;;;;;1.50;1.40;;;11.90;99.90;;;;;;5036593;28;20235;-86
2022/08/07 05:07:23;;;;;;;2.45;1.40;;;11.90;99.90;;;;;;5037294;28;20209;-88
2022/08/07 05:09:58;;;;;;;2.20;1.35;;;12.00;99.90;;;;;;5050102;28;20686;-84
2022/08/07 05:12:48;;;;;;;3.08;2.20;;;12.00;99.90;;;;;;5044154;28;20201;-86
2022/08/07 05:15:20;;;;;;;6.03;1.85;;;12.00;99.90;;;;;;5028127;28;20200;-87
2022/08/07 05:17:52;;;;;;;2.45;1.77;;;12.00;99.90;;;;;;5044302;28;20200;-87
2022/08/07 05:20:23;;;;;;;3.45;2.30;;;12.10;99.90;;;;;;5046853;28;20197;-88
2022/08/07 05:22:51;;;;;;;3.25;2.15;;;12.20;99.90;;;;;;5036479;28;20178;-86
2022/08/07 05:25:20;;;;;;;2.88;2.40;;;12.20;99.90;;;;;;5045034;28;20527;-87
2022/08/07 05:27:47;;;;;;;4.30;2.42;;;12.20;99.90;;;;;;5037033;28;20294;-86
2022/08/07 05:30:15;;;;;;;5.88;2.55;;;12.30;99.90;;;;;;5040448;28;20181;-90
2022/08/07 05:32:42;;;;;;;3.55;2.33;;;12.40;99.90;;;;;;5054651;28;20522;-85
2022/08/07 05:35:10;;;;;;;2.55;2.22;;;12.50;99.90;;;;;;5054510;28;20612;-94
2022/08/07 05:37:39;;;;;;;3.63;2.80;;;12.60;99.90;;;;;;5053993;28;20180;-85
2022/08/07 05:40:05;;;;;;;6.07;3.30;;;12.60;99.90;;;;;;5054389;28;20178;-87
2022/08/07 05:42:31;;;;;;;5.28;2.92;;;12.70;99.90;;;;;;5036689;28;20190;-85
2022/08/07 05:44:57;;;;;;;4.10;3.30;;;12.80;99.90;;;;;;5049469;28;20567;-86
2022/08/07 05:47:23;;;;;;;5.45;3.15;;;12.80;99.90;;;;;;5053508;28;20292;-89
2022/08/07 05:49:50;;;;;;;4.45;2.92;;;12.90;99.90;;;;;;5040261;28;20628;-87
2022/08/07 05:52:20;;;;;;;7.72;3.70;;;12.90;99.90;;;;;;5036226;28;20268;-85
2022/08/07 05:54:46;;;;;;;3.75;2.97;;;13.00;99.90;;;;;;5049346;28;20210;-85
2022/08/07 05:57:13;;;;;;;7.15;4.05;;;13.00;99.90;;;;;;5054114;28;20227;-85
2022/08/07 05:59:41;;;;;;;4.65;3.42;;;13.10;99.90;;;;;;5053471;28;20219;-85
2022/08/07 06:02:08;;;;;;;4.68;3.83;;;13.10;99.90;;;;;;5035897;28;20182;-86
2022/08/07 06:04:38;;;;;;;5.10;3.85;;;13.20;99.90;;;;;;5040975;28;20185;-86
2022/08/07 06:07:05;;;;;;;6.03;4.05;;;13.30;99.90;;;;;;5038345;28;20221;-86
2022/08/07 06:09:32;;;;;;;9.65;4.82;;;13.50;99.90;;;;;;5038756;28;20212;-84
2022/08/07 06:11:58;;;;;;;7.47;4.40;;;13.50;99.90;;;;;;5052535;28;20189;-85
2022/08/07 06:14:24;;;;;;;6.40;4.05;;;13.60;99.90;;;;;;5046138;28;20531;-85
2022/08/07 06:16:51;;;;;;;4.93;3.67;;;13.70;99.90;;;;;;5042541;28;20197;-85
2022/08/07 06:19:25;;;;;;;6.07;4.18;;;13.70;99.90;;;;;;5053846;28;20205;-84
2022/08/07 06:21:52;;;;;;;7.72;4.53;;;13.80;99.90;;;;;;5054230;28;20189;-85
2022/08/07 06:24:17;;;;;;;5.00;4.35;;;13.90;99.90;;;;;;5037701;28;20631;-87
2022/08/07 06:26:43;;;;;;;6.18;3.67;;;13.90;99.90;;;;;;5043898;28;20236;-87
2022/08/07 06:29:11;;;;;;;8.63;4.40;;;14.00;99.90;;;;;;5044425;28;20182;-86
2022/08/07 06:31:37;;;;;;;4.40;3.50;;;14.10;99.90;;;;;;5053681;28;20181;-86
2022/08/07 06:34:02;;;;;;;7.18;3.90;;;14.20;99.90;;;;;;5035738;28;20177;-86
2022/08/07 06:36:29;;;;;;;4.10;2.97;;;14.20;99.90;;;;;;5052244;28;20695;-86
2022/08/07 06:38:55;;;;;;;5.22;4.05;;;14.30;99.90;;;;;;5052817;28;20196;-83
2022/08/07 06:41:40;;;;;;;6.43;3.70;;;14.40;99.90;;;;;;5035368;28;20272;-85
2022/08/07 06:44:09;;;;;;;5.60;3.75;;;14.50;99.90;;;;;;5053344;28;20201;-84
2022/08/07 06:46:35;;;;;;;7.60;3.60;;;14.60;99.90;;;;;;5053062;28;20209;-82
2022/08/07 06:49:02;;;;;;;7.32;3.70;;;14.70;99.90;;;;;;5052385;28;20691;-82
2022/08/07 06:51:31;;;;;;;5.88;3.92;;;14.80;99.90;;;;;;5053046;28;20182;-82
2022/08/07 06:54:02;;;;;;;4.25;3.30;;;15.00;99.90;;;;;;5053773;28;20189;-85
2022/08/07 06:56:38;;;;;;;7.53;3.78;;;15.00;99.90;;;;;;5047003;28;20782;-88
2022/08/07 06:59:09;;;;;;;5.00;3.70;;;15.20;99.90;;;;;;5053596;28;20189;-85
2022/08/07 07:01:36;;;;;;;6.07;3.53;;;15.30;99.90;;;;;;5050632;28;20240;-86
2022/08/07 07:04:04;;;;;;;4.75;3.53;;;15.40;99.90;;;;;;5039234;28;20196;-85
2022/08/07 07:06:31;;;;;;;5.70;3.95;;;15.50;99.90;;;;;;5047733;28;20406;-85
2022/08/07 07:09:16;;;;;;;5.63;3.90;;;15.50;99.90;;;;;;5059331;28;20237;-85
2022/08/07 07:12:05;;;;;;;4.68;3.40;;;15.70;99.90;;;;;;5045279;28;20185;-86
2022/08/07 07:15:02;;;;;;;6.97;3.15;;;15.90;99.90;;;;;;5049073;28;20178;-84
2022/08/07 07:17:52;;;;;;;4.85;3.10;;;16.00;99.90;;;;;;5030467;28;20929;-86
2022/08/07 07:20:24;;;;;;;5.10;3.45;;;16.20;99.90;;;;;;5029907;28;20185;-96
2022/08/07 07:22:52;;;;;;;6.40;3.85;;;16.40;99.90;;;;;;5054145;28;20628;-88
2022/08/07 07:25:18;;;;;;;6.15;3.70;;;16.60;99.90;;;;;;5055067;28;20181;-90
2022/08/07 07:27:56;;;;;;;6.70;3.25;;;16.80;99.90;;;;;;5033929;28;20209;-87
2022/08/07 07:30:28;;;;;;;5.05;3.53;;;17.00;99.90;;;;;;5044974;28;20177;-86
2022/08/07 07:32:57;;;;;;;4.78;3.00;;;17.20;99.90;;;;;;5056894;28;20211;-83
2022/08/07 07:35:24;;;;;;;6.50;3.30;;;17.30;99.90;;;;;;5051708;28;20181;-90
2022/08/07 07:37:52;;;;;;;6.22;3.25;;;17.50;99.90;;;;;;5036960;28;20194;-86
2022/08/07 07:40:21;;;;;;;5.55;3.13;;;17.60;99.90;;;;;;5057856;28;20186;-87
2022/08/07 07:42:51;;;;;;;4.88;3.47;;;17.80;99.90;;;;;;5057265;28;20185;-85
2022/08/07 07:45:20;;;;;;;7.78;3.58;;;17.90;99.90;;;;;;5041655;28;20212;-85
2022/08/07 07:47:48;;;;;;;5.40;3.33;;;18.00;99.90;;;;;;5047499;28;20634;-87
2022/08/07 07:50:16;;;;;;;5.10;2.72;;;18.10;99.90;;;;;;5040951;28;20521;-85
2022/08/07 07:52:45;;;;;;;3.95;2.75;;;18.30;99.00;;;;;;5038235;28;20188;-91
2022/08/07 07:55:11;;;;;;;5.50;3.28;;;18.50;98.90;;;;;;5039767;28;20686;-87
2022/08/07 07:57:39;;;;;;;8.23;3.55;;;18.50;99.60;;;;;;5040675;28;20189;-92
2022/08/07 08:00:06;;;;;;;5.03;2.70;;;18.70;98.50;;;;;;5056232;28;20682;-86
2022/08/07 08:02:34;;;;;;;3.95;2.65;;;18.80;98.10;;;;;;5043446;28;20276;-89
2022/08/07 08:05:03;;;;;;;3.47;2.70;;;18.90;97.50;;;;;;5037567;28;20181;-83
2022/08/07 08:07:32;;;;;;;6.13;2.60;;;19.00;97.60;;;;;;5055541;28;20209;-84
2022/08/07 08:10:00;;;;;;;3.88;2.40;;;19.10;96.40;;;;;;5055767;28;20181;-84
2022/08/07 08:12:26;;;;;;;4.20;2.50;;;19.20;96.10;;;;;;5046662;28;20677;-86
2022/08/07 08:14:52;;;;;;;3.70;2.17;;;19.30;95.70;;;;;;5054950;28;20616;-85
2022/08/07 08:17:19;;;;;;;4.38;2.83;;;19.40;95.20;;;;;;5037730;28;20316;-89
2022/08/07 08:19:46;;;;;;;3.45;2.55;;;19.40;95.60;;;;;;5042598;28;20284;-84
2022/08/07 08:27:49;;;;;;;3.35;2.53;;;19.80;94.80;;;;;;5055167;28;20256;-86
2022/08/07 08:30:14;;;;;;;4.18;2.17;;;19.90;94.10;;;;;;5044406;28;20203;-86
2022/08/07 08:32:48;;;;;;;2.65;2.08;;;20.00;93.80;;;;;;5055556;28;20189;-84
2022/08/07 08:35:20;;;;;;;3.70;2.53;;;20.00;93.90;;;;;;5037378;28;20186;-87
2022/08/07 08:37:48;;;;;;;3.28;2.10;;;20.10;94.00;;;;;;5055074;28;20174;-85
2022/08/07 08:40:21;;;;;;;5.38;2.20;;;20.10;94.00;;;;;;5047231;28;20189;-86
2022/08/07 08:43:26;;;;;;;3.95;2.05;;;20.20;92.30;;;;;;5055623;28;20162;-86
2022/08/07 08:46:23;;;;;;;4.47;2.10;;;20.30;93.00;;;;;;5051442;28;20181;-86
2022/08/07 08:49:00;;;;;;;3.38;1.90;;;20.40;92.10;;;;;;5030039;28;20228;-84
2022/08/07 08:51:36;;;;;;;4.93;1.98;;;20.50;93.50;;;;;;5054943;28;20628;-84
2022/08/07 08:54:09;;;;;;;4.82;2.45;;;20.60;93.60;;;;;;5039133;28;20213;-88
2022/08/07 08:56:39;;;;;;;6.65;1.92;;;20.70;93.30;;;;;;5045317;28;20200;-90
2022/08/07 08:59:24;;;;;;;4.65;2.05;;;20.80;92.20;;;;;;5053898;28;20261;-88
2022/08/07 09:02:10;;;;;;;2.60;1.50;;;20.90;91.90;;;;;;5037401;28;20524;-87
2022/08/07 09:05:08;;;;;;;1.50;1.23;;;21.00;91.90;;;;;;5048377;28;20189;-88
2022/08/07 09:07:48;;;;;;;2.95;1.17;;;21.00;90.90;;;;;;5009250;28;20320;-89
2022/08/07 09:10:28;;;;;;;2.03;1.17;;;21.10;90.60;;;;;;5037206;28;20186;-87
2022/08/07 09:13:09;;;;;;;2.40;1.30;;;21.20;91.00;;;;;;5040509;28;20197;-91
2022/08/07 09:15:57;;;;;;;2.42;1.20;;;21.20;89.60;;;;;;5041452;28;20185;-87
2022/08/07 09:18:42;;;;;;;2.50;1.10;;;21.20;87.10;;;;;;5037325;28;20698;-91
2022/08/07 09:21:27;;;;;;;2.70;1.20;;;21.10;88.70;;;;;;5038990;28;20213;-88
2022/08/07 09:24:26;;;;;;;2.03;1.20;;;20.70;90.40;;;;;;5039428;28;20187;-88
2022/08/07 09:27:15;;;;;;;2.35;0.98;;;20.70;90.60;;;;;;5047452;28;20202;-87
2022/08/07 09:29:50;;;;;;;2.13;1.00;;;20.90;89.40;;;;;;5049769;28;20186;-85
2022/08/07 09:32:41;;;;;;;1.40;0.80;;;21.00;88.10;;;;;;5036736;28;20185;-88
2022/08/07 09:35:31;;;;;;;1.08;0.98;;;21.20;87.60;;;;;;5040789;28;20185;-88
2022/08/07 09:38:12;;;;;;;1.45;1.17;;;21.40;90.00;;;;;;5054823;28;20257;-86
2022/08/07 09:40:58;;;;;;;2.40;1.10;;;21.40;87.70;;;;;;5036247;28;20569;-88
2022/08/07 09:43:48;;;;;;;2.15;0.98;;;21.70;89.00;;;;;;5054502;28;20177;-87
2022/08/07 09:46:38;;;;;;;1.88;1.25;;;21.90;90.50;;;;;;5054225;28;20201;-88
2022/08/07 09:49:27;;;;;;;2.75;0.90;;;22.00;88.80;;;;;;5035921;28;20249;-88
2022/08/07 09:52:14;;;;;;;3.08;1.30;;;22.10;89.50;;;;;;5036373;28;20189;-89
2022/08/07 09:54:53;;;;;;;1.70;1.00;;;22.20;88.40;;;;;;5036669;28;20189;-90
2022/08/07 09:57:53;;;;;;;1.83;1.13;;;22.30;88.20;;;;;;5054345;28;20209;-86
2022/08/07 10:00:29;;;;;;;1.83;0.93;;;22.50;87.10;;;;;;5030545;28;20193;-87
2022/08/07 10:03:10;;;;;;;1.90;0.90;;;22.50;87.30;;;;;;5050478;28;20179;-89
2022/08/07 10:05:56;;;;;;;3.90;0.98;;;22.60;86.90;;;;;;5054075;28;20166;-88
2022/08/07 10:08:40;;;;;;;1.63;0.90;;;22.60;84.50;;;;;;5041074;28;20193;-88
2022/08/07 10:11:13;;;;;;;1.25;0.88;;;22.70;86.60;;;;;;5041747;28;20272;-87
2022/08/07 10:13:56;;;;;;;1.75;0.90;;;22.80;85.60;;;;;;5053751;28;20201;-88
2022/08/07 10:16:43;;;;;;;1.60;0.90;;;23.00;84.10;;;;;;5045194;28;20170;-89
2022/08/07 10:19:56;;;;;;;2.65;0.90;;;22.90;83.30;;;;;;5039620;28;20359;-87
2022/08/07 10:22:46;;;;;;;2.17;0.90;;;22.80;86.00;;;;;;5044891;28;20280;-90
2022/08/07 10:25:36;;;;;;;2.33;0.93;;;22.90;84.30;;;;;;5036189;28;20186;-88
2022/08/07 10:28:04;;;;;;;1.85;0.80;;;22.90;84.80;;;;;;5012914;28;20220;-89
2022/08/07 10:30:50;;;;;;;1.98;0.70;;;23.10;86.30;;;;;;5036482;28;20228;-90
2022/08/07 10:33:30;;;;;;;1.38;0.75;;;23.10;83.60;;;;;;5039570;28;20189;-90
2022/08/07 10:36:11;;;;;;;1.75;0.80;;;23.20;82.30;;;;;;5053562;28;20158;-88
2022/08/07 10:39:04;;;;;;;1.60;0.90;;;23.30;82.10;;;;;;5052943;28;20209;-87
2022/08/07 10:41:42;;;;;;;2.63;0.80;;;23.30;83.00;;;;;;4989337;28;20183;-88
2022/08/07 10:44:52;;;;;;;1.13;0.95;;;23.20;77.60;;;;;;5035790;28;20181;-87
2022/08/07 10:47:40;;;;;;;1.70;0.77;;;23.20;81.20;;;;;;4964945;28;20605;-89
2022/08/07 10:50:32;;;;;;;1.27;0.80;;;23.30;82.70;;;;;;5032100;28;20190;-86
2022/08/07 10:53:04;;;;;;;1.13;1.00;;;23.50;83.00;;;;;;5036295;28;20221;-86
2022/08/07 10:55:50;;;;;;;2.17;0.70;;;23.70;80.90;;;;;;5032283;28;20174;-85
2022/08/07 10:58:33;;;;;;;1.13;0.73;;;23.80;83.10;;;;;;5031337;28;20574;-86
2022/08/07 11:01:26;;;;;;;2.30;0.82;;;24.00;82.20;;;;;;5045279;28;20178;-87
2022/08/07 11:03:55;;;;;;;1.40;0.70;;;24.00;79.70;;;;;;5044543;28;20276;-87
2022/08/07 11:06:50;;;;;;;2.63;0.90;;;24.00;79.80;;;;;;5053876;28;20595;-88
2022/08/07 11:09:26;;;;;;;0.95;0.70;;;24.00;81.10;;;;;;5032049;28;20235;-87
2022/08/07 11:12:03;;;;;;;1.30;0.73;;;24.20;82.60;;;;;;5049992;28;20174;-89
2022/08/07 11:14:45;;;;;;;3.33;0.98;;;24.40;81.70;;;;;;5028971;28;20512;-92
2022/08/07 11:17:19;;;;;;;3.38;0.63;;;24.50;81.60;;;;;;5056866;28;20256;-87
2022/08/07 11:20:35;;;;;;;1.17;0.90;;;24.60;81.10;;;;;;5056878;28;20166;-88
2022/08/07 11:23:36;;;;;;;3.13;1.17;;;24.70;76.80;;;;;;5003754;28;20225;-90
2022/08/07 11:26:15;;;;;;;0.77;0.70;;;24.60;77.90;;;;;;5053330;28;20209;-87
2022/08/07 11:28:55;;;;;;;1.92;0.90;;;24.70;79.80;;;;;;5048918;28;20281;-86
2022/08/07 11:31:46;;;;;;;1.40;0.88;;;24.60;79.30;;;;;;5055601;28;20181;-86
2022/08/07 11:34:35;;;;;;;3.00;0.80;;;24.70;77.70;;;;;;5047830;28;20178;-85
2022/08/07 11:37:10;;;;;;;1.48;0.80;;;24.80;80.60;;;;;;5046769;28;20177;-87
2022/08/07 11:39:58;;;;;;;5.25;0.88;;;24.90;78.00;;;;;;5056983;28;20237;-91
2022/08/07 11:42:43;;;;;;;1.23;0.80;;;25.00;77.80;;;;;;5038868;28;20185;-86
2022/08/07 11:45:26;;;;;;;2.33;0.77;;;25.10;78.40;;;;;;4985529;28;20194;-87
2022/08/07 11:47:55;;;;;;;1.42;0.80;;;24.80;78.80;;;;;;5046886;28;20229;-91
2022/08/07 11:50:20;;;;;;;3.80;0.75;;;24.40;79.40;;;;;;5038923;28;20277;-89
2022/08/07 11:53:12;;;;;;;1.10;0.60;;;23.90;79.30;;;;;;5055944;28;20659;-89
2022/08/07 11:56:05;;;;;;;1.85;0.75;;;23.60;80.80;;;;;;5042830;28;20192;-90
2022/08/07 11:59:06;;;;;;;1.25;0.90;;;23.20;79.60;;;;;;5036222;28;20181;-90
2022/08/07 12:02:05;;;;;;;2.55;0.80;;;22.90;80.30;;;;;;4972720;28;20188;-91
2022/08/07 12:04:41;;;;;;;1.95;1.00;;;22.70;81.30;;;;;;5055017;28;20188;-90
2022/08/07 12:07:33;;;;;;;1.45;0.60;;;22.60;81.50;;;;;;5039412;28;20217;-89
2022/08/07 12:10:04;;;;;;;1.73;0.85;;;22.60;82.40;;;;;;5053883;28;21359;-90
2022/08/07 12:13:28;;;;;;;1.42;0.70;;;22.70;81.30;;;;;;5038648;28;20217;-88
2022/08/07 12:16:02;;;;;;;1.08;0.75;;;23.20;78.10;;;;;;4952405;28;20201;-87
2022/08/07 12:18:31;;;;;;;0.70;0.57;;;23.60;78.60;;;;;;5055523;28;20178;-86
2022/08/07 12:21:00;;;;;;;1.33;0.70;;;23.90;79.40;;;;;;5038415;28;20220;-89
2022/08/07 12:23:51;;;;;;;2.42;0.88;;;24.10;75.60;;;;;;5045356;28;20209;-86
2022/08/07 12:26:41;;;;;;;0.82;0.50;;;24.30;74.80;;;;;;5041855;28;20363;-92
2022/08/07 12:29:31;;;;;;;2.70;0.70;;;24.50;75.00;;;;;;5038230;28;20538;-88
2022/08/07 12:31:58;;;;;;;1.08;0.60;;;24.70;77.60;;;;;;5034980;28;20624;-86
2022/08/07 12:34:30;;;;;;;2.65;0.57;;;24.80;78.00;;;;;;5053594;28;20261;-92
2022/08/07 12:36:58;;;;;;;1.70;0.68;;;25.00;76.80;;;;;;5054456;28;20205;-88
2022/08/07 12:39:28;;;;;;;0.98;0.73;;;25.20;73.70;;;;;;5053297;28;20178;-86
2022/08/07 12:41:54;;;;;;;1.30;0.70;;;25.40;75.00;;;;;;5050937;28;20651;-85
2022/08/07 12:44:23;;;;;;;1.08;0.80;;;25.50;74.50;;;;;;5031982;28;20221;-84
2022/08/07 12:47:19;;;;;;;1.25;0.60;;;25.60;73.00;;;;;;5036135;28;20343;-90
2022/08/07 12:50:12;;;;;;;2.92;0.80;;;25.30;73.10;;;;;;5053073;28;20273;-85
2022/08/07 12:52:50;;;;;;;1.08;0.60;;;25.00;75.60;;;;;;5050425;28;20178;-89
2022/08/07 12:55:23;;;;;;;0.80;0.50;;;24.80;75.10;;;;;;5040691;28;20192;-89
2022/08/07 12:57:50;;;;;;;3.28;0.60;;;24.50;75.40;;;;;;5038827;28;20185;-88
2022/08/07 13:00:16;;;;;;;1.38;0.70;;;24.30;76.90;;;;;;5039319;28;20281;-90
2022/08/07 13:03:09;;;;;;;1.75;0.73;;;24.50;75.80;;;;;;5032995;28;20229;-89
2022/08/07 13:06:07;;;;;;;0.70;0.50;;;24.90;77.10;;;;;;5035986;28;20185;-89
2022/08/07 13:08:50;;;;;;;0.50;0.50;;;25.40;76.20;;;;;;5053465;28;20613;-87
2022/08/07 13:11:51;;;;;;;1.85;0.80;;;25.70;75.10;;;;;;5036237;28;20261;-90
2022/08/07 13:14:29;;;;;;;2.33;0.60;;;25.90;70.90;;;;;;5037443;28;20188;-86
2022/08/07 13:17:34;;;;;;;0.90;0.73;;;25.90;71.20;;;;;;5037732;28;20181;-87
2022/08/07 13:20:08;;;;;;;1.25;0.77;;;26.10;75.20;;;;;;5035131;28;20200;-90
2022/08/07 13:22:46;;;;;;;1.42;0.90;;;25.90;73.90;;;;;;5035433;28;20173;-87
2022/08/07 13:25:25;;;;;;;1.52;0.80;;;25.50;72.70;;;;;;5051038;28;20230;-87
2022/08/07 13:28:00;;;;;;;2.00;0.98;;;25.00;72.40;;;;;;5035282;28;20756;-86
2022/08/07 13:30:28;;;;;;;1.95;0.98;;;24.50;76.00;;;;;;5035123;28;20184;-85
2022/08/07 13:33:27;;;;;;;1.08;0.82;;;24.20;76.20;;;;;;5035687;28;20220;-86
2022/08/07 13:36:00;;;;;;;1.48;0.82;;;23.80;73.70;;;;;;5033391;28;20193;-86